sensor_id;sensor_type;location;lat;lon;timestamp;pressure;altitude;pressure_sealevel;temperature;humidity
20424;BME280;10371;49.042;8.002;2023-08-07T00:00:30;99805.94;;;13.66;94.00
20424;BME280;10371;49.042;8.002;2023-08-07T00:01:30;99799.44;;;13.70;93.88
20424;BME280;10371;49.042;8.002;2023-08-07T00:02:30;99805.66;;;13.69;93.87
20424;BME280;10371;49.042;8.002;2023-08-07T00:03:31;99809.25;;;13.68;94.16
20424;BME280;10371;49.042;8.002;2023-08-07T00:04:31;99814.47;;;13.68;94.25
20424;BME280;10371;49.042;8.002;2023-08-07T00:05:31;99804.66;;;13.70;94.43
20424;BME280;10371;49.042;8.002;2023-08-07T00:06:31;99814.19;;;13.71;94.14
20424;BME280;10371;49.042;8.002;2023-08-07T00:07:32;99803.03;;;13.69;94.25
20424;BME280;10371;49.042;8.002;2023-08-07T00:08:32;99812.50;;;13.70;94.13
20424;BME280;10371;49.042;8.002;2023-08-07T00:09:33;99808.25;;;13.69;94.18
20424;BME280;10371;49.042;8.002;2023-08-07T00:10:33;99805.78;;;13.68;94.36
20424;BME280;10371;49.042;8.002;2023-08-07T00:11:33;99817.22;;;13.67;94.54
20424;BME280;10371;49.042;8.002;2023-08-07T00:12:34;99812.81;;;13.67;94.36
20424;BME280;10371;49.042;8.002;2023-08-07T00:13:34;99811.47;;;13.63;94.03
20424;BME280;10371;49.042;8.002;2023-08-07T00:14:34;99815.03;;;13.62;93.79
20424;BME280;10371;49.042;8.002;2023-08-07T00:15:37;99813.09;;;13.64;93.54
20424;BME280;10371;49.042;8.002;2023-08-07T00:16:37;99804.56;;;13.62;93.80
20424;BME280;10371;49.042;8.002;2023-08-07T00:17:38;99814.38;;;13.60;94.28
20424;BME280;10371;49.042;8.002;2023-08-07T00:18:38;99814.50;;;13.58;94.66
20424;BME280;10371;49.042;8.002;2023-08-07T00:19:38;99810.91;;;13.59;94.42
20424;BME280;10371;49.042;8.002;2023-08-07T00:20:39;99813.38;;;13.61;94.37
20424;BME280;10371;49.042;8.002;2023-08-07T00:21:39;99811.75;;;13.60;94.31
20424;BME280;10371;49.042;8.002;2023-08-07T00:22:40;99811.75;;;13.60;94.35
20424;BME280;10371;49.042;8.002;2023-08-07T00:23:40;99816.00;;;13.61;94.49
20424;BME280;10371;49.042;8.002;2023-08-07T00:24:40;99812.03;;;13.57;94.51
20424;BME280;10371;49.042;8.002;2023-08-07T00:25:40;99820.00;;;13.55;95.14
20424;BME280;10371;49.042;8.002;2023-08-07T00:26:41;99807.91;;;13.54;94.57
20424;BME280;10371;49.042;8.002;2023-08-07T00:27:41;99816.72;;;13.53;94.43
20424;BME280;10371;49.042;8.002;2023-08-07T00:28:41;99817.53;;;13.54;94.80
20424;BME280;10371;49.042;8.002;2023-08-07T00:29:42;99812.03;;;13.57;94.80
20424;BME280;10371;49.042;8.002;2023-08-07T00:30:42;99816.28;;;13.58;94.55
20424;BME280;10371;49.042;8.002;2023-08-07T00:31:42;99804.19;;;13.57;94.49
20424;BME280;10371;49.042;8.002;2023-08-07T00:32:43;99810.09;;;13.59;94.46
20424;BME280;10371;49.042;8.002;2023-08-07T00:33:43;99811.06;;;13.58;94.50
20424;BME280;10371;49.042;8.002;2023-08-07T00:34:43;99806.13;;;13.55;94.16
20424;BME280;10371;49.042;8.002;2023-08-07T00:35:43;99809.56;;;13.55;93.94
20424;BME280;10371;49.042;8.002;2023-08-07T00:36:44;99807.91;;;13.54;93.87
20424;BME280;10371;49.042;8.002;2023-08-07T00:37:44;99806.53;;;13.50;94.21
20424;BME280;10371;49.042;8.002;2023-08-07T00:38:44;99807.50;;;13.49;94.03
20424;BME280;10371;49.042;8.002;2023-08-07T00:39:45;99813.16;;;13.45;94.29
20424;BME280;10371;49.042;8.002;2023-08-07T00:40:45;99811.25;;;13.47;94.60
20424;BME280;10371;49.042;8.002;2023-08-07T00:41:45;99811.38;;;13.45;94.12
20424;BME280;10371;49.042;8.002;2023-08-07T00:42:45;99807.94;;;13.45;94.08
20424;BME280;10371;49.042;8.002;2023-08-07T00:43:46;99812.88;;;13.48;94.05
20424;BME280;10371;49.042;8.002;2023-08-07T00:44:46;99813.69;;;13.48;93.86
20424;BME280;10371;49.042;8.002;2023-08-07T00:45:47;99806.53;;;13.50;93.65
20424;BME280;10371;49.042;8.002;2023-08-07T00:46:47;99813.44;;;13.51;93.52
20424;BME280;10371;49.042;8.002;2023-08-07T00:47:47;99807.66;;;13.48;93.57
20424;BME280;10371;49.042;8.002;2023-08-07T00:48:48;99818.50;;;13.53;93.26
20424;BME280;10371;49.042;8.002;2023-08-07T00:49:48;99811.78;;;13.50;93.64
20424;BME280;10371;49.042;8.002;2023-08-07T00:50:49;99819.19;;;13.55;93.53
20424;BME280;10371;49.042;8.002;2023-08-07T00:51:51;99826.22;;;13.54;93.58
20424;BME280;10371;49.042;8.002;2023-08-07T00:52:53;99829.38;;;13.58;93.44
20424;BME280;10371;49.042;8.002;2023-08-07T00:53:53;99824.97;;;13.58;93.55
20424;BME280;10371;49.042;8.002;2023-08-07T00:54:53;99822.50;;;13.57;93.52
20424;BME280;10371;49.042;8.002;2023-08-07T00:55:53;99829.50;;;13.56;93.46
20424;BME280;10371;49.042;8.002;2023-08-07T00:56:54;99839.84;;;13.58;93.72
20424;BME280;10371;49.042;8.002;2023-08-07T00:57:54;99830.34;;;13.57;94.13
20424;BME280;10371;49.042;8.002;2023-08-07T00:58:55;99827.03;;;13.55;94.38
20424;BME280;10371;49.042;8.002;2023-08-07T00:59:55;99837.63;;;13.53;95.12
20424;BME280;10371;49.042;8.002;2023-08-07T01:00:56;99833.22;;;13.54;95.14
20424;BME280;10371;49.042;8.002;2023-08-07T01:01:57;99837.34;;;13.56;95.13
20424;BME280;10371;49.042;8.002;2023-08-07T01:02:57;99831.81;;;13.59;94.93
20424;BME280;10371;49.042;8.002;2023-08-07T01:03:57;99829.09;;;13.61;94.53
20424;BME280;10371;49.042;8.002;2023-08-07T01:04:57;99833.50;;;13.60;94.33
20424;BME280;10371;49.042;8.002;2023-08-07T01:05:58;99827.28;;;13.61;94.56
20424;BME280;10371;49.042;8.002;2023-08-07T01:06:58;99833.91;;;13.66;94.65
20424;BME280;10371;49.042;8.002;2023-08-07T01:07:58;99838.72;;;13.60;94.43
20424;BME280;10371;49.042;8.002;2023-08-07T01:08:59;99832.09;;;13.66;94.37
20424;BME280;10371;49.042;8.002;2023-08-07T01:09:59;99832.38;;;13.63;93.22
20424;BME280;10371;49.042;8.002;2023-08-07T01:11:18;99834.03;;;13.64;93.34
20424;BME280;10371;49.042;8.002;2023-08-07T01:12:26;99836.22;;;13.69;92.82
20424;BME280;10371;49.042;8.002;2023-08-07T01:13:47;99843.25;;;13.68;91.62
20424;BME280;10371;49.042;8.002;2023-08-07T01:14:58;99843.09;;;13.70;91.73
20424;BME280;10371;49.042;8.002;2023-08-07T01:16:05;99835.25;;;13.70;91.20
20424;BME280;10371;49.042;8.002;2023-08-07T01:17:11;99841.16;;;13.72;91.32
20424;BME280;10371;49.042;8.002;2023-08-07T01:18:14;99838.38;;;13.73;91.63
20424;BME280;10371;49.042;8.002;2023-08-07T01:19:27;99835.13;;;13.71;91.81
20424;BME280;10371;49.042;8.002;2023-08-07T01:20:27;99835.94;;;13.72;92.00
20424;BME280;10371;49.042;8.002;2023-08-07T01:21:27;99832.22;;;13.74;90.87
20424;BME280;10371;49.042;8.002;2023-08-07T01:22:28;99838.25;;;13.75;90.80
20424;BME280;10371;49.042;8.002;2023-08-07T01:23:28;99835.50;;;13.76;91.03
20424;BME280;10371;49.042;8.002;2023-08-07T01:24:28;99835.50;;;13.76;90.26
20424;BME280;10371;49.042;8.002;2023-08-07T01:25:29;99834.28;;;13.71;90.25
20424;BME280;10371;49.042;8.002;2023-08-07T01:26:29;99834.56;;;13.68;90.86
20424;BME280;10371;49.042;8.002;2023-08-07T01:27:48;99832.09;;;13.66;91.33
20424;BME280;10371;49.042;8.002;2023-08-07T01:29:06;99830.72;;;13.62;91.67
20424;BME280;10371;49.042;8.002;2023-08-07T01:30:27;99832.53;;;13.61;91.00
20424;BME280;10371;49.042;8.002;2023-08-07T01:31:31;99826.47;;;13.61;91.06
20424;BME280;10371;49.042;8.002;2023-08-07T01:34:00;99844.09;;;13.59;91.06
20424;BME280;10371;49.042;8.002;2023-08-07T01:35:02;99834.06;;;13.54;91.34
20424;BME280;10371;49.042;8.002;2023-08-07T01:36:05;99834.34;;;13.51;91.41
20424;BME280;10371;49.042;8.002;2023-08-07T01:37:07;99835.06;;;13.44;91.66
20424;BME280;10371;49.042;8.002;2023-08-07T01:38:11;99827.22;;;13.44;91.94
20424;BME280;10371;49.042;8.002;2023-08-07T01:39:13;99839.59;;;13.41;91.94
20424;BME280;10371;49.042;8.002;2023-08-07T01:40:14;99842.38;;;13.40;91.90
20424;BME280;10371;49.042;8.002;2023-08-07T01:41:15;99846.75;;;13.39;92.13
20424;BME280;10371;49.042;8.002;2023-08-07T01:42:15;99834.94;;;13.35;92.26
20424;BME280;10371;49.042;8.002;2023-08-07T01:43:16;99840.47;;;13.32;92.51
20424;BME280;10371;49.042;8.002;2023-08-07T01:44:17;99835.50;;;13.29;93.00
20424;BME280;10371;49.042;8.002;2023-08-07T01:45:24;99827.66;;;13.29;93.00
20424;BME280;10371;49.042;8.002;2023-08-07T01:46:24;99839.31;;;13.25;92.85
20424;BME280;10371;49.042;8.002;2023-08-07T01:47:25;99844.56;;;13.25;93.15
20424;BME280;10371;49.042;8.002;2023-08-07T01:48:25;99838.50;;;13.25;93.46
20424;BME280;10371;49.042;8.002;2023-08-07T01:49:26;99838.78;;;13.22;93.30
20424;BME280;10371;49.042;8.002;2023-08-07T01:50:26;99841.53;;;13.20;93.39
20424;BME280;10371;49.042;8.002;2023-08-07T01:51:26;99844.03;;;13.22;92.88
20424;BME280;10371;49.042;8.002;2023-08-07T01:52:26;99846.09;;;13.18;93.42
20424;BME280;10371;49.042;8.002;2023-08-07T01:53:27;99849.53;;;13.18;93.67
20424;BME280;10371;49.042;8.002;2023-08-07T01:54:27;99847.03;;;13.17;93.99
20424;BME280;10371;49.042;8.002;2023-08-07T01:55:27;99855.03;;;13.15;94.22
20424;BME280;10371;49.042;8.002;2023-08-07T01:56:28;99850.63;;;13.16;94.37
20424;BME280;10371;49.042;8.002;2023-08-07T01:57:28;99844.72;;;13.14;94.66
20424;BME280;10371;49.042;8.002;2023-08-07T01:58:28;99859.03;;;13.10;94.67
20424;BME280;10371;49.042;8.002;2023-08-07T01:59:28;99848.44;;;13.11;94.89
20424;BME280;10371;49.042;8.002;2023-08-07T02:00:29;99842.09;;;13.14;95.04
20424;BME280;10371;49.042;8.002;2023-08-07T02:01:29;99853.53;;;13.13;94.90
20424;BME280;10371;49.042;8.002;2023-08-07T02:02:29;99854.22;;;13.15;94.96
20424;BME280;10371;49.042;8.002;2023-08-07T02:03:30;99849.00;;;13.15;94.65
20424;BME280;10371;49.042;8.002;2023-08-07T02:04:30;99857.50;;;13.17;94.79
20424;BME280;10371;49.042;8.002;2023-08-07T02:05:30;99849.38;;;13.20;94.85
20424;BME280;10371;49.042;8.002;2023-08-07T02:06:30;99857.09;;;13.22;94.81
20424;BME280;10371;49.042;8.002;2023-08-07T02:07:31;99856.72;;;13.26;94.65
20424;BME280;10371;49.042;8.002;2023-08-07T02:08:31;99857.78;;;13.24;94.53
20424;BME280;10371;49.042;8.002;2023-08-07T02:09:32;99852.31;;;13.27;94.62
20424;BME280;10371;49.042;8.002;2023-08-07T02:10:32;99862.47;;;13.30;94.29
20424;BME280;10371;49.042;8.002;2023-08-07T02:11:32;99867.97;;;13.36;93.90
20424;BME280;10371;49.042;8.002;2023-08-07T02:12:32;99857.66;;;13.35;94.02
20424;BME280;10371;49.042;8.002;2023-08-07T02:13:33;99868.94;;;13.35;94.04
20424;BME280;10371;49.042;8.002;2023-08-07T02:14:33;99868.78;;;13.37;94.20
20424;BME280;10371;49.042;8.002;2023-08-07T02:15:33;99857.22;;;13.39;94.46
20424;BME280;10371;49.042;8.002;2023-08-07T02:16:34;99857.91;;;13.41;94.49
20424;BME280;10371;49.042;8.002;2023-08-07T02:17:34;99869.19;;;13.42;94.15
20424;BME280;10371;49.042;8.002;2023-08-07T02:18:35;99865.75;;;13.41;94.05
20424;BME280;10371;49.042;8.002;2023-08-07T02:19:36;99864.41;;;13.37;94.35
20424;BME280;10371;49.042;8.002;2023-08-07T02:20:36;99857.78;;;13.33;94.45
20424;BME280;10371;49.042;8.002;2023-08-07T02:21:36;99853.53;;;13.32;95.05
20424;BME280;10371;49.042;8.002;2023-08-07T02:22:36;99858.75;;;13.32;95.21
20424;BME280;10371;49.042;8.002;2023-08-07T02:23:37;99856.97;;;13.33;95.17
20424;BME280;10371;49.042;8.002;2023-08-07T02:24:37;99856.44;;;13.29;94.75
20424;BME280;10371;49.042;8.002;2023-08-07T02:25:37;99862.31;;;13.31;94.44
20424;BME280;10371;49.042;8.002;2023-08-07T02:26:38;99860.00;;;13.28;94.29
20424;BME280;10371;49.042;8.002;2023-08-07T02:27:38;99857.25;;;13.30;94.05
20424;BME280;10371;49.042;8.002;2023-08-07T02:28:38;99858.34;;;13.27;94.11
20424;BME280;10371;49.042;8.002;2023-08-07T02:29:39;99861.09;;;13.26;94.22
20424;BME280;10371;49.042;8.002;2023-08-07T02:30:39;99866.84;;;13.19;94.39
20424;BME280;10371;49.042;8.002;2023-08-07T02:31:39;99863.56;;;13.17;94.62
20424;BME280;10371;49.042;8.002;2023-08-07T02:32:39;99854.34;;;13.13;94.61
20424;BME280;10371;49.042;8.002;2023-08-07T02:33:42;99857.25;;;13.10;94.95
20424;BME280;10371;49.042;8.002;2023-08-07T02:34:43;99851.47;;;13.07;95.56
20424;BME280;10371;49.042;8.002;2023-08-07T02:35:44;99855.31;;;13.03;95.74
20424;BME280;10371;49.042;8.002;2023-08-07T02:36:44;99859.72;;;13.02;95.81
20424;BME280;10371;49.042;8.002;2023-08-07T02:37:45;99858.91;;;13.02;96.02
20424;BME280;10371;49.042;8.002;2023-08-07T02:38:45;99860.00;;;12.99;96.35
20424;BME280;10371;49.042;8.002;2023-08-07T02:39:45;99856.84;;;12.95;96.64
20424;BME280;10371;49.042;8.002;2023-08-07T02:40:45;99854.50;;;12.92;96.71
20424;BME280;10371;49.042;8.002;2023-08-07T02:41:46;99859.03;;;12.90;97.20
20424;BME280;10371;49.042;8.002;2023-08-07T02:42:46;99859.16;;;12.89;97.09
20424;BME280;10371;49.042;8.002;2023-08-07T02:43:46;99857.00;;;12.84;97.38
20424;BME280;10371;49.042;8.002;2023-08-07T02:44:46;99849.56;;;12.80;97.66
20424;BME280;10371;49.042;8.002;2023-08-07T02:45:47;99854.91;;;12.78;97.93
20424;BME280;10371;49.042;8.002;2023-08-07T02:46:47;99858.75;;;12.74;98.55
20424;BME280;10371;49.042;8.002;2023-08-07T02:47:47;99861.91;;;12.78;98.88
20424;BME280;10371;49.042;8.002;2023-08-07T02:48:47;99860.41;;;12.75;99.13
20424;BME280;10371;49.042;8.002;2023-08-07T02:49:48;99854.63;;;12.71;99.40
20424;BME280;10371;49.042;8.002;2023-08-07T02:50:48;99855.59;;;12.70;99.72
20424;BME280;10371;49.042;8.002;2023-08-07T02:51:51;99855.03;;;12.67;99.91
20424;BME280;10371;49.042;8.002;2023-08-07T02:52:51;99850.09;;;12.64;100.00
20424;BME280;10371;49.042;8.002;2023-08-07T02:53:51;99848.28;;;12.64;100.00
20424;BME280;10371;49.042;8.002;2023-08-07T02:54:52;99848.44;;;12.63;100.00
20424;BME280;10371;49.042;8.002;2023-08-07T02:55:52;99854.50;;;12.63;100.00
20424;BME280;10371;49.042;8.002;2023-08-07T02:56:52;99856.13;;;12.64;100.00
20424;BME280;10371;49.042;8.002;2023-08-07T02:57:52;99860.53;;;12.64;99.71
20424;BME280;10371;49.042;8.002;2023-08-07T02:58:53;99859.72;;;12.63;99.97
20424;BME280;10371;49.042;8.002;2023-08-07T02:59:53;99854.88;;;12.59;99.82
20424;BME280;10371;49.042;8.002;2023-08-07T03:00:53;99862.72;;;12.59;100.00
20424;BME280;10371;49.042;8.002;2023-08-07T03:01:54;99851.84;;;12.53;100.00
20424;BME280;10371;49.042;8.002;2023-08-07T03:02:54;99852.81;;;12.52;100.00
20424;BME280;10371;49.042;8.002;2023-08-07T03:03:54;99856.53;;;12.50;100.00
20424;BME280;10371;49.042;8.002;2023-08-07T03:04:55;99856.69;;;12.48;100.00
20424;BME280;10371;49.042;8.002;2023-08-07T03:05:55;99857.34;;;12.50;100.00
20424;BME280;10371;49.042;8.002;2023-08-07T03:06:55;99855.72;;;12.49;100.00
20424;BME280;10371;49.042;8.002;2023-08-07T03:07:56;99858.59;;;12.46;100.00
20424;BME280;10371;49.042;8.002;2023-08-07T03:08:56;99855.28;;;12.44;100.00
20424;BME280;10371;49.042;8.002;2023-08-07T03:09:56;99859.56;;;12.45;100.00
20424;BME280;10371;49.042;8.002;2023-08-07T03:10:57;99860.66;;;12.43;100.00
20424;BME280;10371;49.042;8.002;2023-08-07T03:11:58;99854.03;;;12.39;100.00
20424;BME280;10371;49.042;8.002;2023-08-07T03:13:04;99862.03;;;12.37;100.00
20424;BME280;10371;49.042;8.002;2023-08-07T03:14:04;99853.22;;;12.38;100.00
20424;BME280;10371;49.042;8.002;2023-08-07T03:15:05;99848.81;;;12.39;100.00
20424;BME280;10371;49.042;8.002;2023-08-07T03:16:06;99852.94;;;12.41;100.00
20424;BME280;10371;49.042;8.002;2023-08-07T03:17:07;99859.13;;;12.40;100.00
20424;BME280;10371;49.042;8.002;2023-08-07T03:18:07;99853.91;;;12.40;100.00
20424;BME280;10371;49.042;8.002;2023-08-07T03:19:08;99855.81;;;12.38;100.00
20424;BME280;10371;49.042;8.002;2023-08-07T03:20:08;99861.47;;;12.43;100.00
20424;BME280;10371;49.042;8.002;2023-08-07T03:21:09;99860.50;;;12.44;100.00
20424;BME280;10371;49.042;8.002;2023-08-07T03:22:10;99870.41;;;12.41;100.00
20424;BME280;10371;49.042;8.002;2023-08-07T03:23:10;99861.75;;;12.40;100.00
20424;BME280;10371;49.042;8.002;2023-08-07T03:24:10;99865.19;;;12.41;100.00
20424;BME280;10371;49.042;8.002;2023-08-07T03:25:11;99867.09;;;12.39;100.00
20424;BME280;10371;49.042;8.002;2023-08-07T03:26:12;99867.09;;;12.39;100.00
20424;BME280;10371;49.042;8.002;2023-08-07T03:27:12;99870.78;;;12.36;100.00
20424;BME280;10371;49.042;8.002;2023-08-07T03:28:12;99869.00;;;12.37;100.00
20424;BME280;10371;49.042;8.002;2023-08-07T03:29:13;99875.19;;;12.36;100.00
20424;BME280;10371;49.042;8.002;2023-08-07T03:30:13;99868.19;;;12.36;100.00
20424;BME280;10371;49.042;8.002;2023-08-07T03:31:14;99871.88;;;12.34;100.00
20424;BME280;10371;49.042;8.002;2023-08-07T03:32:15;99876.44;;;12.32;100.00
20424;BME280;10371;49.042;8.002;2023-08-07T03:33:15;99868.59;;;12.32;100.00
20424;BME280;10371;49.042;8.002;2023-08-07T03:34:16;99862.53;;;12.31;100.00
20424;BME280;10371;49.042;8.002;2023-08-07T03:35:16;99863.63;;;12.28;100.00
20424;BME280;10371;49.042;8.002;2023-08-07T03:36:16;99855.78;;;12.28;100.00
20424;BME280;10371;49.042;8.002;2023-08-07T03:37:16;99864.75;;;12.26;100.00
20424;BME280;10371;49.042;8.002;2023-08-07T03:38:17;99871.72;;;12.25;100.00
20424;BME280;10371;49.042;8.002;2023-08-07T03:39:18;99871.59;;;12.27;100.00
20424;BME280;10371;49.042;8.002;2023-08-07T03:40:18;99869.97;;;12.26;100.00
20424;BME280;10371;49.042;8.002;2023-08-07T03:41:18;99859.38;;;12.27;100.00
20424;BME280;10371;49.042;8.002;2023-08-07T03:42:19;99861.44;;;12.24;100.00
20424;BME280;10371;49.042;8.002;2023-08-07T03:43:19;99867.88;;;12.20;100.00
20424;BME280;10371;49.042;8.002;2023-08-07T03:44:19;99862.63;;;12.20;100.00
20424;BME280;10371;49.042;8.002;2023-08-07T03:45:19;99868.00;;;12.18;100.00
20424;BME280;10371;49.042;8.002;2023-08-07T03:46:20;99869.09;;;12.16;100.00
20424;BME280;10371;49.042;8.002;2023-08-07T03:47:20;99857.03;;;12.15;100.00
20424;BME280;10371;49.042;8.002;2023-08-07T03:48:20;99861.97;;;12.18;100.00
20424;BME280;10371;49.042;8.002;2023-08-07T03:49:20;99868.13;;;12.17;100.00
20424;BME280;10371;49.042;8.002;2023-08-07T03:50:21;99862.34;;;12.13;100.00
20424;BME280;10371;49.042;8.002;2023-08-07T03:51:21;99857.84;;;12.15;100.00
20424;BME280;10371;49.042;8.002;2023-08-07T03:52:22;99863.88;;;12.16;100.00
20424;BME280;10371;49.042;8.002;2023-08-07T03:53:22;99859.38;;;12.18;100.00
20424;BME280;10371;49.042;8.002;2023-08-07T03:54:22;99864.97;;;12.23;100.00
20424;BME280;10371;49.042;8.002;2023-08-07T03:55:22;99862.38;;;12.23;100.00
20424;BME280;10371;49.042;8.002;2023-08-07T03:56:23;99860.63;;;12.23;100.00
20424;BME280;10371;49.042;8.002;2023-08-07T03:57:23;99862.38;;;12.23;100.00
20424;BME280;10371;49.042;8.002;2023-08-07T03:58:23;99859.09;;;12.21;100.00
20424;BME280;10371;49.042;8.002;2023-08-07T03:59:23;99863.34;;;12.22;100.00
20424;BME280;10371;49.042;8.002;2023-08-07T04:00:24;99853.34;;;12.27;100.00
20424;BME280;10371;49.042;8.002;2023-08-07T04:01:24;99867.09;;;12.29;100.00
20424;BME280;10371;49.042;8.002;2023-08-07T04:02:24;99861.88;;;12.29;100.00
20424;BME280;10371;49.042;8.002;2023-08-07T04:03:25;99867.63;;;12.33;100.00
20424;BME280;10371;49.042;8.002;2023-08-07T04:04:25;99867.75;;;12.31;100.00
20424;BME280;10371;49.042;8.002;2023-08-07T04:05:26;99869.00;;;12.37;100.00
20424;BME280;10371;49.042;8.002;2023-08-07T04:06:26;99867.78;;;12.41;100.00
20424;BME280;10371;49.042;8.002;2023-08-07T04:07:27;99860.66;;;12.43;100.00
20424;BME280;10371;49.042;8.002;2023-08-07T04:08:27;99867.63;;;12.42;100.00
20424;BME280;10371;49.042;8.002;2023-08-07T04:09:27;99855.44;;;12.43;100.00
20424;BME280;10371;49.042;8.002;2023-08-07T04:10:28;99858.59;;;12.46;100.00
20424;BME280;10371;49.042;8.002;2023-08-07T04:11:28;99855.84;;;12.48;100.00
20424;BME280;10371;49.042;8.002;2023-08-07T04:12:28;99865.19;;;12.50;100.00
20424;BME280;10371;49.042;8.002;2023-08-07T04:13:29;99858.31;;;12.49;100.00
20424;BME280;10371;49.042;8.002;2023-08-07T04:14:29;99862.56;;;12.50;100.00
20424;BME280;10371;49.042;8.002;2023-08-07T04:15:29;99858.31;;;12.49;100.00
20424;BME280;10371;49.042;8.002;2023-08-07T04:16:30;99858.03;;;12.52;100.00
20424;BME280;10371;49.042;8.002;2023-08-07T04:17:31;99852.69;;;12.54;100.00
20424;BME280;10371;49.042;8.002;2023-08-07T04:18:32;99849.00;;;12.57;100.00
20424;BME280;10371;49.042;8.002;2023-08-07T04:19:33;99849.66;;;12.59;100.00
20424;BME280;10371;49.042;8.002;2023-08-07T04:20:33;99858.63;;;12.66;100.00
20424;BME280;10371;49.042;8.002;2023-08-07T04:21:34;99855.72;;;12.69;100.00
20424;BME280;10371;49.042;8.002;2023-08-07T04:22:34;99852.03;;;12.71;100.00
20424;BME280;10371;49.042;8.002;2023-08-07T04:23:34;99858.34;;;12.69;100.00
20424;BME280;10371;49.042;8.002;2023-08-07T04:24:34;99861.38;;;12.74;100.00
20424;BME280;10371;49.042;8.002;2023-08-07T04:25:35;99857.78;;;12.75;100.00
20424;BME280;10371;49.042;8.002;2023-08-07T04:26:35;99856.84;;;12.76;100.00
20424;BME280;10371;49.042;8.002;2023-08-07T04:27:35;99864.81;;;12.74;100.00
20424;BME280;10371;49.042;8.002;2023-08-07T04:28:35;99857.66;;;12.77;100.00
20424;BME280;10371;49.042;8.002;2023-08-07T04:29:36;99850.66;;;12.77;100.00
20424;BME280;10371;49.042;8.002;2023-08-07T04:30:36;99853.09;;;12.79;100.00
20424;BME280;10371;49.042;8.002;2023-08-07T04:31:36;99857.50;;;12.78;100.00
20424;BME280;10371;49.042;8.002;2023-08-07T04:32:38;99858.22;;;12.80;100.00
20424;BME280;10371;49.042;8.002;2023-08-07T04:33:38;99863.44;;;12.80;100.00
20424;BME280;10371;49.042;8.002;2023-08-07T04:34:38;99860.81;;;12.80;100.00
20424;BME280;10371;49.042;8.002;2023-08-07T04:35:39;99859.03;;;12.81;100.00
20424;BME280;10371;49.042;8.002;2023-08-07T04:36:39;99863.16;;;12.83;99.79
20424;BME280;10371;49.042;8.002;2023-08-07T04:37:39;99864.69;;;12.86;99.70
20424;BME280;10371;49.042;8.002;2023-08-07T04:38:40;99868.81;;;12.88;99.54
20424;BME280;10371;49.042;8.002;2023-08-07T04:39:40;99866.59;;;12.84;99.24
20424;BME280;10371;49.042;8.002;2023-08-07T04:40:47;99875.53;;;12.81;99.31
20424;BME280;10371;49.042;8.002;2023-08-07T04:41:47;99863.16;;;12.83;99.11
20424;BME280;10371;49.042;8.002;2023-08-07T04:42:50;99869.22;;;12.84;98.43
20424;BME280;10371;49.042;8.002;2023-08-07T04:43:50;99862.34;;;12.83;98.28
20424;BME280;10371;49.042;8.002;2023-08-07T04:44:50;99863.31;;;12.82;98.12
20424;BME280;10371;49.042;8.002;2023-08-07T04:45:51;99862.75;;;12.78;98.30
20424;BME280;10371;49.042;8.002;2023-08-07T04:46:51;99863.72;;;12.77;98.37
20424;BME280;10371;49.042;8.002;2023-08-07T04:47:52;99871.00;;;12.73;98.69
20424;BME280;10371;49.042;8.002;2023-08-07T04:48:52;99868.94;;;12.77;98.68
20424;BME280;10371;49.042;8.002;2023-08-07T04:49:54;99871.56;;;12.77;98.96
20424;BME280;10371;49.042;8.002;2023-08-07T04:50:55;99871.41;;;12.79;99.01
20424;BME280;10371;49.042;8.002;2023-08-07T04:51:56;99874.97;;;12.78;98.90
20424;BME280;10371;49.042;8.002;2023-08-07T04:52:56;99872.09;;;12.81;98.92
20424;BME280;10371;49.042;8.002;2023-08-07T04:53:56;99880.09;;;12.79;98.89
20424;BME280;10371;49.042;8.002;2023-08-07T04:54:57;99873.19;;;12.78;98.63
20424;BME280;10371;49.042;8.002;2023-08-07T04:55:59;99875.13;;;12.76;99.01
20424;BME280;10371;49.042;8.002;2023-08-07T04:56:59;99877.59;;;12.78;99.05
20424;BME280;10371;49.042;8.002;2023-08-07T04:57:59;99880.09;;;12.79;99.21
20424;BME280;10371;49.042;8.002;2023-08-07T04:59:00;99883.50;;;12.80;99.05
20424;BME280;10371;49.042;8.002;2023-08-07T05:00:01;99885.59;;;12.76;99.24
20424;BME280;10371;49.042;8.002;2023-08-07T05:01:02;99879.50;;;12.75;99.31
20424;BME280;10371;49.042;8.002;2023-08-07T05:02:02;99878.69;;;12.75;99.18
20424;BME280;10371;49.042;8.002;2023-08-07T05:03:02;99879.50;;;12.75;99.36
20424;BME280;10371;49.042;8.002;2023-08-07T05:04:03;99878.84;;;12.73;99.61
20424;BME280;10371;49.042;8.002;2023-08-07T05:05:04;99883.22;;;12.73;99.86
20424;BME280;10371;49.042;8.002;2023-08-07T05:06:05;99880.59;;;12.73;100.00
20424;BME280;10371;49.042;8.002;2023-08-07T05:07:05;99880.34;;;12.76;100.00
20424;BME280;10371;49.042;8.002;2023-08-07T05:08:06;99884.88;;;12.74;100.00
20424;BME280;10371;49.042;8.002;2023-08-07T05:09:06;99884.88;;;12.74;100.00
20424;BME280;10371;49.042;8.002;2023-08-07T05:10:09;99895.19;;;12.75;100.00
20424;BME280;10371;49.042;8.002;2023-08-07T05:11:10;99889.69;;;12.79;100.00
20424;BME280;10371;49.042;8.002;2023-08-07T05:12:10;99894.78;;;12.80;100.00
20424;BME280;10371;49.042;8.002;2023-08-07T05:13:10;99885.56;;;12.86;100.00
20424;BME280;10371;49.042;8.002;2023-08-07T05:14:11;99894.94;;;12.88;100.00
20424;BME280;10371;49.042;8.002;2023-08-07T05:15:11;99891.22;;;12.91;99.94
20424;BME280;10371;49.042;8.002;2023-08-07T05:16:11;99887.63;;;12.92;99.49
20424;BME280;10371;49.042;8.002;2023-08-07T05:17:12;99901.41;;;12.94;99.01
20424;BME280;10371;49.042;8.002;2023-08-07T05:18:13;99897.69;;;12.96;98.97
20424;BME280;10371;49.042;8.002;2023-08-07T05:19:13;99902.50;;;13.01;98.95
20424;BME280;10371;49.042;8.002;2023-08-07T05:20:13;99906.06;;;13.00;98.93
20424;BME280;10371;49.042;8.002;2023-08-07T05:21:14;99897.00;;;13.04;98.95
20424;BME280;10371;49.042;8.002;2023-08-07T05:22:15;99899.34;;;13.07;99.03
20424;BME280;10371;49.042;8.002;2023-08-07T05:23:15;99897.97;;;13.13;98.91